sensor_id;sensor_type;location;lat;lon;timestamp;P1;durP1;ratioP1;P2;durP2;ratioP2
37507;SDS011;23360;46.936;15.514;2024-02-28T00:01:38;40.47;;;16.65;;
37507;SDS011;23360;46.936;15.514;2024-02-28T00:04:23;35.95;;;18.00;;
37507;SDS011;23360;46.936;15.514;2024-02-28T00:07:08;67.18;;;18.98;;
37507;SDS011;23360;46.936;15.514;2024-02-28T00:09:53;295.42;;;28.10;;
37507;SDS011;23360;46.936;15.514;2024-02-28T00:12:42;448.05;;;33.10;;
37507;SDS011;23360;46.936;15.514;2024-02-28T00:15:27;40.50;;;17.20;;
37507;SDS011;23360;46.936;15.514;2024-02-28T00:18:12;40.30;;;17.17;;
37507;SDS011;23360;46.936;15.514;2024-02-28T00:20:57;29.15;;;15.88;;
37507;SDS011;23360;46.936;15.514;2024-02-28T00:23:43;30.40;;;13.65;;
37507;SDS011;23360;46.936;15.514;2024-02-28T00:26:28;32.13;;;16.58;;
37507;SDS011;23360;46.936;15.514;2024-02-28T00:29:16;35.80;;;16.40;;
37507;SDS011;23360;46.936;15.514;2024-02-28T00:32:01;41.58;;;16.08;;
37507;SDS011;23360;46.936;15.514;2024-02-28T00:34:46;31.95;;;14.13;;
37507;SDS011;23360;46.936;15.514;2024-02-28T00:37:31;41.05;;;16.15;;
37507;SDS011;23360;46.936;15.514;2024-02-28T00:40:17;41.78;;;15.70;;
37507;SDS011;23360;46.936;15.514;2024-02-28T00:43:02;45.08;;;16.85;;
37507;SDS011;23360;46.936;15.514;2024-02-28T00:45:47;44.45;;;18.85;;
37507;SDS011;23360;46.936;15.514;2024-02-28T00:48:32;37.67;;;17.10;;
37507;SDS011;23360;46.936;15.514;2024-02-28T00:51:18;36.13;;;15.98;;
37507;SDS011;23360;46.936;15.514;2024-02-28T00:54:03;27.70;;;15.60;;
37507;SDS011;23360;46.936;15.514;2024-02-28T00:56:48;41.58;;;17.52;;
37507;SDS011;23360;46.936;15.514;2024-02-28T00:59:33;32.33;;;15.65;;
37507;SDS011;23360;46.936;15.514;2024-02-28T01:02:18;255.65;;;26.05;;
37507;SDS011;23360;46.936;15.514;2024-02-28T01:05:03;359.25;;;32.13;;
37507;SDS011;23360;46.936;15.514;2024-02-28T01:07:49;107.35;;;22.58;;
37507;SDS011;23360;46.936;15.514;2024-02-28T01:10:34;146.00;;;23.75;;
37507;SDS011;23360;46.936;15.514;2024-02-28T01:13:19;295.38;;;27.90;;
37507;SDS011;23360;46.936;15.514;2024-02-28T01:16:04;302.45;;;32.33;;
37507;SDS011;23360;46.936;15.514;2024-02-28T01:18:49;156.57;;;26.75;;
37507;SDS011;23360;46.936;15.514;2024-02-28T01:21:35;251.85;;;27.90;;
37507;SDS011;23360;46.936;15.514;2024-02-28T01:24:21;161.90;;;25.35;;
37507;SDS011;23360;46.936;15.514;2024-02-28T01:27:06;122.43;;;22.23;;
37507;SDS011;23360;46.936;15.514;2024-02-28T01:29:51;399.40;;;29.20;;
37507;SDS011;23360;46.936;15.514;2024-02-28T01:32:38;578.47;;;36.38;;
37507;SDS011;23360;46.936;15.514;2024-02-28T01:35:23;690.35;;;38.60;;
37507;SDS011;23360;46.936;15.514;2024-02-28T01:38:08;635.30;;;38.92;;
37507;SDS011;23360;46.936;15.514;2024-02-28T01:40:53;511.95;;;32.83;;
37507;SDS011;23360;46.936;15.514;2024-02-28T01:43:39;465.90;;;28.17;;
37507;SDS011;23360;46.936;15.514;2024-02-28T01:46:25;511.38;;;32.38;;
37507;SDS011;23360;46.936;15.514;2024-02-28T01:49:11;573.58;;;36.10;;
37507;SDS011;23360;46.936;15.514;2024-02-28T01:51:56;524.25;;;36.47;;
37507;SDS011;23360;46.936;15.514;2024-02-28T01:54:42;531.28;;;29.85;;
37507;SDS011;23360;46.936;15.514;2024-02-28T01:57:27;488.77;;;30.23;;
37507;SDS011;23360;46.936;15.514;2024-02-28T02:00:13;332.65;;;26.88;;
37507;SDS011;23360;46.936;15.514;2024-02-28T02:02:59;322.70;;;24.10;;
37507;SDS011;23360;46.936;15.514;2024-02-28T02:05:44;371.40;;;24.35;;
37507;SDS011;23360;46.936;15.514;2024-02-28T02:08:30;288.23;;;21.83;;
37507;SDS011;23360;46.936;15.514;2024-02-28T02:11:16;168.65;;;17.90;;
37507;SDS011;23360;46.936;15.514;2024-02-28T02:14:03;107.15;;;19.38;;
37507;SDS011;23360;46.936;15.514;2024-02-28T02:16:49;48.50;;;18.70;;
37507;SDS011;23360;46.936;15.514;2024-02-28T02:19:34;36.25;;;14.77;;
37507;SDS011;23360;46.936;15.514;2024-02-28T02:22:19;47.53;;;17.90;;
37507;SDS011;23360;46.936;15.514;2024-02-28T02:25:05;48.00;;;17.90;;
37507;SDS011;23360;46.936;15.514;2024-02-28T02:27:50;29.40;;;15.43;;
37507;SDS011;23360;46.936;15.514;2024-02-28T02:30:35;32.50;;;12.95;;
37507;SDS011;23360;46.936;15.514;2024-02-28T02:33:20;37.45;;;15.23;;
37507;SDS011;23360;46.936;15.514;2024-02-28T02:36:05;49.83;;;17.00;;
37507;SDS011;23360;46.936;15.514;2024-02-28T02:38:51;119.75;;;18.88;;
37507;SDS011;23360;46.936;15.514;2024-02-28T02:41:36;470.38;;;30.38;;
37507;SDS011;23360;46.936;15.514;2024-02-28T02:44:21;143.73;;;18.75;;
37507;SDS011;23360;46.936;15.514;2024-02-28T02:47:06;243.52;;;22.05;;
37507;SDS011;23360;46.936;15.514;2024-02-28T02:49:51;62.13;;;21.30;;
37507;SDS011;23360;46.936;15.514;2024-02-28T02:52:37;54.63;;;23.05;;
37507;SDS011;23360;46.936;15.514;2024-02-28T02:55:22;46.40;;;22.60;;
37507;SDS011;23360;46.936;15.514;2024-02-28T02:58:07;185.75;;;30.17;;
37507;SDS011;23360;46.936;15.514;2024-02-28T03:00:52;575.08;;;47.80;;
37507;SDS011;23360;46.936;15.514;2024-02-28T03:03:37;166.00;;;26.38;;
37507;SDS011;23360;46.936;15.514;2024-02-28T03:06:23;326.40;;;30.55;;
37507;SDS011;23360;46.936;15.514;2024-02-28T03:09:09;599.88;;;36.88;;
37507;SDS011;23360;46.936;15.514;2024-02-28T03:11:54;700.78;;;41.67;;
37507;SDS011;23360;46.936;15.514;2024-02-28T03:14:39;548.50;;;36.08;;
37507;SDS011;23360;46.936;15.514;2024-02-28T03:17:24;492.00;;;31.88;;
37507;SDS011;23360;46.936;15.514;2024-02-28T03:20:09;247.45;;;26.70;;
37507;SDS011;23360;46.936;15.514;2024-02-28T03:22:55;415.88;;;29.20;;
37507;SDS011;23360;46.936;15.514;2024-02-28T03:25:40;301.00;;;30.13;;
37507;SDS011;23360;46.936;15.514;2024-02-28T03:28:25;104.07;;;19.20;;
37507;SDS011;23360;46.936;15.514;2024-02-28T03:31:10;385.30;;;28.08;;
37507;SDS011;23360;46.936;15.514;2024-02-28T03:33:55;361.02;;;28.83;;
37507;SDS011;23360;46.936;15.514;2024-02-28T03:36:40;269.60;;;25.33;;
37507;SDS011;23360;46.936;15.514;2024-02-28T03:39:25;65.75;;;19.40;;
37507;SDS011;23360;46.936;15.514;2024-02-28T03:42:10;144.52;;;22.83;;
37507;SDS011;23360;46.936;15.514;2024-02-28T03:44:55;56.35;;;18.88;;
37507;SDS011;23360;46.936;15.514;2024-02-28T03:47:40;108.85;;;22.42;;
37507;SDS011;23360;46.936;15.514;2024-02-28T03:50:25;529.08;;;38.92;;
37507;SDS011;23360;46.936;15.514;2024-02-28T03:53:10;60.72;;;17.77;;
37507;SDS011;23360;46.936;15.514;2024-02-28T03:55:55;288.42;;;24.17;;
37507;SDS011;23360;46.936;15.514;2024-02-28T03:58:40;631.15;;;35.67;;
37507;SDS011;23360;46.936;15.514;2024-02-28T04:01:26;537.70;;;31.30;;
37507;SDS011;23360;46.936;15.514;2024-02-28T04:04:11;539.55;;;34.30;;
37507;SDS011;23360;46.936;15.514;2024-02-28T04:06:56;254.57;;;21.20;;
37507;SDS011;23360;46.936;15.514;2024-02-28T04:09:42;392.17;;;28.58;;
37507;SDS011;23360;46.936;15.514;2024-02-28T04:12:27;274.73;;;18.23;;
37507;SDS011;23360;46.936;15.514;2024-02-28T04:15:12;309.13;;;19.98;;
37507;SDS011;23360;46.936;15.514;2024-02-28T04:18:00;76.72;;;13.52;;
37507;SDS011;23360;46.936;15.514;2024-02-28T04:20:45;149.80;;;14.13;;
37507;SDS011;23360;46.936;15.514;2024-02-28T04:23:30;160.82;;;15.60;;
37507;SDS011;23360;46.936;15.514;2024-02-28T04:26:15;175.82;;;15.15;;
37507;SDS011;23360;46.936;15.514;2024-02-28T04:29:00;242.77;;;15.82;;
37507;SDS011;23360;46.936;15.514;2024-02-28T04:31:47;209.13;;;16.20;;
37507;SDS011;23360;46.936;15.514;2024-02-28T04:34:33;302.17;;;17.80;;
37507;SDS011;23360;46.936;15.514;2024-02-28T04:37:18;227.70;;;15.68;;
37507;SDS011;23360;46.936;15.514;2024-02-28T04:40:03;187.68;;;19.17;;
37507;SDS011;23360;46.936;15.514;2024-02-28T04:42:48;199.77;;;20.85;;
37507;SDS011;23360;46.936;15.514;2024-02-28T04:45:33;118.75;;;16.15;;
37507;SDS011;23360;46.936;15.514;2024-02-28T04:48:18;27.73;;;12.88;;
37507;SDS011;23360;46.936;15.514;2024-02-28T04:51:03;26.77;;;11.40;;
37507;SDS011;23360;46.936;15.514;2024-02-28T04:53:49;26.70;;;11.50;;
37507;SDS011;23360;46.936;15.514;2024-02-28T04:56:38;37.67;;;10.50;;
37507;SDS011;23360;46.936;15.514;2024-02-28T04:59:24;30.20;;;11.70;;
37507;SDS011;23360;46.936;15.514;2024-02-28T05:02:09;30.60;;;11.90;;
37507;SDS011;23360;46.936;15.514;2024-02-28T05:04:54;28.08;;;11.32;;
37507;SDS011;23360;46.936;15.514;2024-02-28T05:07:39;27.65;;;10.93;;
37507;SDS011;23360;46.936;15.514;2024-02-28T05:10:25;49.67;;;12.07;;
37507;SDS011;23360;46.936;15.514;2024-02-28T05:13:10;33.65;;;11.55;;
37507;SDS011;23360;46.936;15.514;2024-02-28T05:15:55;37.45;;;12.38;;
37507;SDS011;23360;46.936;15.514;2024-02-28T05:18:40;27.23;;;10.10;;
37507;SDS011;23360;46.936;15.514;2024-02-28T05:21:25;36.95;;;10.32;;
37507;SDS011;23360;46.936;15.514;2024-02-28T05:24:10;17.92;;;9.52;;
37507;SDS011;23360;46.936;15.514;2024-02-28T05:26:55;283.88;;;19.25;;
37507;SDS011;23360;46.936;15.514;2024-02-28T05:29:40;796.05;;;35.33;;
37507;SDS011;23360;46.936;15.514;2024-02-28T05:32:27;593.28;;;30.05;;
37507;SDS011;23360;46.936;15.514;2024-02-28T05:35:12;413.85;;;23.80;;
37507;SDS011;23360;46.936;15.514;2024-02-28T05:37:59;433.35;;;24.08;;
37507;SDS011;23360;46.936;15.514;2024-02-28T05:40:44;505.73;;;22.75;;
37507;SDS011;23360;46.936;15.514;2024-02-28T05:43:30;374.23;;;21.90;;
37507;SDS011;23360;46.936;15.514;2024-02-28T05:46:15;466.90;;;24.42;;
37507;SDS011;23360;46.936;15.514;2024-02-28T05:49:00;533.67;;;28.52;;
37507;SDS011;23360;46.936;15.514;2024-02-28T05:51:45;614.28;;;31.85;;
37507;SDS011;23360;46.936;15.514;2024-02-28T05:54:32;347.27;;;19.75;;
37507;SDS011;23360;46.936;15.514;2024-02-28T05:57:18;397.35;;;21.30;;
37507;SDS011;23360;46.936;15.514;2024-02-28T06:00:04;306.23;;;17.75;;
37507;SDS011;23360;46.936;15.514;2024-02-28T06:02:55;305.20;;;19.60;;
37507;SDS011;23360;46.936;15.514;2024-02-28T06:05:40;193.23;;;15.35;;
37507;SDS011;23360;46.936;15.514;2024-02-28T06:08:27;218.57;;;16.60;;
37507;SDS011;23360;46.936;15.514;2024-02-28T06:11:13;314.67;;;18.05;;
37507;SDS011;23360;46.936;15.514;2024-02-28T06:13:58;300.42;;;16.63;;
37507;SDS011;23360;46.936;15.514;2024-02-28T06:16:46;157.25;;;14.38;;
37507;SDS011;23360;46.936;15.514;2024-02-28T06:19:31;137.45;;;14.82;;
37507;SDS011;23360;46.936;15.514;2024-02-28T06:22:16;112.55;;;13.45;;
37507;SDS011;23360;46.936;15.514;2024-02-28T06:25:03;57.35;;;11.88;;
37507;SDS011;23360;46.936;15.514;2024-02-28T06:27:52;38.17;;;12.88;;
37507;SDS011;23360;46.936;15.514;2024-02-28T06:30:38;31.65;;;13.57;;
37507;SDS011;23360;46.936;15.514;2024-02-28T06:33:23;38.53;;;14.57;;
37507;SDS011;23360;46.936;15.514;2024-02-28T06:36:09;30.08;;;14.05;;
37507;SDS011;23360;46.936;15.514;2024-02-28T06:38:54;43.63;;;15.88;;
37507;SDS011;23360;46.936;15.514;2024-02-28T06:41:39;52.33;;;17.80;;
37507;SDS011;23360;46.936;15.514;2024-02-28T06:44:24;27.83;;;13.70;;
37507;SDS011;23360;46.936;15.514;2024-02-28T06:47:09;29.30;;;13.90;;
37507;SDS011;23360;46.936;15.514;2024-02-28T06:49:55;27.00;;;13.93;;
37507;SDS011;23360;46.936;15.514;2024-02-28T06:52:41;35.13;;;16.00;;
37507;SDS011;23360;46.936;15.514;2024-02-28T06:55:26;26.52;;;12.80;;
37507;SDS011;23360;46.936;15.514;2024-02-28T06:58:11;58.55;;;11.52;;
37507;SDS011;23360;46.936;15.514;2024-02-28T07:00:57;21.75;;;9.93;;
37507;SDS011;23360;46.936;15.514;2024-02-28T07:03:46;22.73;;;11.38;;
37507;SDS011;23360;46.936;15.514;2024-02-28T07:06:31;22.80;;;12.02;;
37507;SDS011;23360;46.936;15.514;2024-02-28T07:09:17;23.63;;;11.43;;
37507;SDS011;23360;46.936;15.514;2024-02-28T07:12:02;24.77;;;11.10;;
37507;SDS011;23360;46.936;15.514;2024-02-28T07:14:47;22.52;;;11.48;;
37507;SDS011;23360;46.936;15.514;2024-02-28T07:17:32;18.20;;;9.73;;
37507;SDS011;23360;46.936;15.514;2024-02-28T07:20:19;24.75;;;11.60;;
37507;SDS011;23360;46.936;15.514;2024-02-28T07:23:04;26.60;;;13.52;;
37507;SDS011;23360;46.936;15.514;2024-02-28T07:25:49;24.80;;;11.18;;
37507;SDS011;23360;46.936;15.514;2024-02-28T07:28:34;19.35;;;10.05;;
37507;SDS011;23360;46.936;15.514;2024-02-28T07:31:19;24.02;;;10.38;;
37507;SDS011;23360;46.936;15.514;2024-02-28T07:34:04;20.50;;;9.32;;
37507;SDS011;23360;46.936;15.514;2024-02-28T07:36:50;19.48;;;9.85;;
37507;SDS011;23360;46.936;15.514;2024-02-28T07:39:35;17.85;;;9.70;;
37507;SDS011;23360;46.936;15.514;2024-02-28T07:42:20;19.30;;;8.30;;
37507;SDS011;23360;46.936;15.514;2024-02-28T07:45:05;22.27;;;11.52;;
37507;SDS011;23360;46.936;15.514;2024-02-28T07:47:53;380.60;;;25.23;;
37507;SDS011;23360;46.936;15.514;2024-02-28T07:50:38;351.35;;;25.70;;
37507;SDS011;23360;46.936;15.514;2024-02-28T07:53:23;202.80;;;18.00;;
37507;SDS011;23360;46.936;15.514;2024-02-28T07:56:15;175.13;;;16.65;;
37507;SDS011;23360;46.936;15.514;2024-02-28T07:59:00;192.10;;;17.60;;
37507;SDS011;23360;46.936;15.514;2024-02-28T08:01:45;206.35;;;17.27;;
37507;SDS011;23360;46.936;15.514;2024-02-28T08:04:30;125.90;;;16.50;;
37507;SDS011;23360;46.936;15.514;2024-02-28T08:07:16;262.38;;;18.60;;
37507;SDS011;23360;46.936;15.514;2024-02-28T08:10:02;188.52;;;16.02;;
37507;SDS011;23360;46.936;15.514;2024-02-28T08:12:50;328.70;;;21.35;;
37507;SDS011;23360;46.936;15.514;2024-02-28T08:15:35;256.48;;;20.17;;
37507;SDS011;23360;46.936;15.514;2024-02-28T08:18:20;32.45;;;12.27;;
37507;SDS011;23360;46.936;15.514;2024-02-28T08:21:06;358.33;;;18.52;;
37507;SDS011;23360;46.936;15.514;2024-02-28T08:23:51;298.15;;;17.95;;
37507;SDS011;23360;46.936;15.514;2024-02-28T08:26:36;140.30;;;15.57;;
37507;SDS011;23360;46.936;15.514;2024-02-28T08:29:22;26.35;;;12.20;;
37507;SDS011;23360;46.936;15.514;2024-02-28T08:32:07;51.15;;;14.05;;
37507;SDS011;23360;46.936;15.514;2024-02-28T08:34:52;19.23;;;10.95;;
37507;SDS011;23360;46.936;15.514;2024-02-28T08:37:39;18.92;;;8.50;;
37507;SDS011;23360;46.936;15.514;2024-02-28T08:40:24;14.48;;;6.47;;
37507;SDS011;23360;46.936;15.514;2024-02-28T08:43:09;19.23;;;7.85;;
37507;SDS011;23360;46.936;15.514;2024-02-28T08:45:55;15.82;;;8.02;;
37507;SDS011;23360;46.936;15.514;2024-02-28T08:48:40;13.35;;;7.18;;
37507;SDS011;23360;46.936;15.514;2024-02-28T08:51:26;15.18;;;6.85;;
37507;SDS011;23360;46.936;15.514;2024-02-28T08:54:12;14.10;;;7.90;;
37507;SDS011;23360;46.936;15.514;2024-02-28T08:56:57;18.48;;;8.80;;
37507;SDS011;23360;46.936;15.514;2024-02-28T08:59:48;20.02;;;8.50;;
37507;SDS011;23360;46.936;15.514;2024-02-28T09:02:37;15.10;;;6.78;;
37507;SDS011;23360;46.936;15.514;2024-02-28T09:05:23;20.08;;;9.18;;
37507;SDS011;23360;46.936;15.514;2024-02-28T09:08:08;26.25;;;10.45;;
37507;SDS011;23360;46.936;15.514;2024-02-28T09:10:58;22.17;;;10.48;;
37507;SDS011;23360;46.936;15.514;2024-02-28T09:13:43;18.65;;;8.52;;
37507;SDS011;23360;46.936;15.514;2024-02-28T09:16:28;17.52;;;8.40;;
37507;SDS011;23360;46.936;15.514;2024-02-28T09:19:13;19.65;;;9.10;;
37507;SDS011;23360;46.936;15.514;2024-02-28T09:21:59;16.83;;;6.90;;
37507;SDS011;23360;46.936;15.514;2024-02-28T09:24:44;17.90;;;7.18;;
37507;SDS011;23360;46.936;15.514;2024-02-28T09:27:29;14.27;;;6.85;;
37507;SDS011;23360;46.936;15.514;2024-02-28T09:30:14;14.68;;;6.68;;
37507;SDS011;23360;46.936;15.514;2024-02-28T09:33:00;13.35;;;7.07;;
37507;SDS011;23360;46.936;15.514;2024-02-28T09:35:45;14.77;;;5.95;;
37507;SDS011;23360;46.936;15.514;2024-02-28T09:38:30;12.85;;;5.80;;
37507;SDS011;23360;46.936;15.514;2024-02-28T09:41:17;18.50;;;6.28;;
37507;SDS011;23360;46.936;15.514;2024-02-28T09:44:02;12.75;;;6.15;;
37507;SDS011;23360;46.936;15.514;2024-02-28T09:46:49;14.93;;;8.00;;
37507;SDS011;23360;46.936;15.514;2024-02-28T09:49:36;10.68;;;6.70;;
37507;SDS011;23360;46.936;15.514;2024-02-28T09:52:22;12.65;;;6.85;;
37507;SDS011;23360;46.936;15.514;2024-02-28T09:55:07;16.92;;;7.95;;
37507;SDS011;23360;46.936;15.514;2024-02-28T09:57:52;14.45;;;7.60;;
37507;SDS011;23360;46.936;15.514;2024-02-28T10:00:37;13.13;;;6.10;;
37507;SDS011;23360;46.936;15.514;2024-02-28T10:03:24;13.82;;;6.78;;
37507;SDS011;23360;46.936;15.514;2024-02-28T10:06:09;13.82;;;6.88;;
37507;SDS011;23360;46.936;15.514;2024-02-28T10:08:56;16.20;;;6.97;;
37507;SDS011;23360;46.936;15.514;2024-02-28T10:11:41;15.05;;;7.15;;
37507;SDS011;23360;46.936;15.514;2024-02-28T10:14:32;12.07;;;7.03;;
37507;SDS011;23360;46.936;15.514;2024-02-28T10:17:17;14.63;;;8.27;;
37507;SDS011;23360;46.936;15.514;2024-02-28T10:20:02;14.88;;;7.93;;
37507;SDS011;23360;46.936;15.514;2024-02-28T10:22:51;14.65;;;7.78;;
37507;SDS011;23360;46.936;15.514;2024-02-28T10:25:47;12.50;;;6.20;;
37507;SDS011;23360;46.936;15.514;2024-02-28T10:31:28;18.63;;;7.22;;
37507;SDS011;23360;46.936;15.514;2024-02-28T10:34:16;16.33;;;7.32;;
37507;SDS011;23360;46.936;15.514;2024-02-28T10:37:02;15.43;;;7.32;;
37507;SDS011;23360;46.936;15.514;2024-02-28T10:39:48;14.10;;;7.00;;
37507;SDS011;23360;46.936;15.514;2024-02-28T10:42:34;14.82;;;7.15;;
37507;SDS011;23360;46.936;15.514;2024-02-28T10:45:20;15.05;;;7.10;;
37507;SDS011;23360;46.936;15.514;2024-02-28T10:48:26;15.93;;;6.50;;
37507;SDS011;23360;46.936;15.514;2024-02-28T10:51:14;12.45;;;6.57;;
37507;SDS011;23360;46.936;15.514;2024-02-28T10:54:10;16.38;;;7.10;;
37507;SDS011;23360;46.936;15.514;2024-02-28T10:56:59;15.65;;;6.32;;
37507;SDS011;23360;46.936;15.514;2024-02-28T10:59:45;15.45;;;6.75;;
37507;SDS011;23360;46.936;15.514;2024-02-28T11:02:34;15.25;;;6.22;;
37507;SDS011;23360;46.936;15.514;2024-02-28T11:05:19;14.32;;;6.15;;
37507;SDS011;23360;46.936;15.514;2024-02-28T11:08:07;14.48;;;6.30;;
37507;SDS011;23360;46.936;15.514;2024-02-28T11:10:57;15.60;;;6.30;;
37507;SDS011;23360;46.936;15.514;2024-02-28T11:13:51;11.52;;;5.47;;
37507;SDS011;23360;46.936;15.514;2024-02-28T11:16:36;15.10;;;5.55;;
37507;SDS011;23360;46.936;15.514;2024-02-28T11:19:22;8.90;;;4.97;;
37507;SDS011;23360;46.936;15.514;2024-02-28T11:22:07;12.13;;;4.65;;
37507;SDS011;23360;46.936;15.514;2024-02-28T11:24:53;13.20;;;4.75;;
37507;SDS011;23360;46.936;15.514;2024-02-28T11:27:45;16.35;;;4.00;;
37507;SDS011;23360;46.936;15.514;2024-02-28T11:30:31;13.65;;;4.80;;
37507;SDS011;23360;46.936;15.514;2024-02-28T11:33:17;9.63;;;3.97;;
37507;SDS011;23360;46.936;15.514;2024-02-28T11:36:03;14.93;;;4.80;;
37507;SDS011;23360;46.936;15.514;2024-02-28T11:38:48;17.52;;;4.63;;
37507;SDS011;23360;46.936;15.514;2024-02-28T11:41:33;10.40;;;4.25;;
37507;SDS011;23360;46.936;15.514;2024-02-28T11:44:18;13.30;;;3.72;;
37507;SDS011;23360;46.936;15.514;2024-02-28T11:47:04;12.73;;;4.35;;
37507;SDS011;23360;46.936;15.514;2024-02-28T11:49:49;10.20;;;3.97;;
37507;SDS011;23360;46.936;15.514;2024-02-28T11:52:34;15.77;;;4.32;;
37507;SDS011;23360;46.936;15.514;2024-02-28T11:55:20;11.02;;;4.22;;
37507;SDS011;23360;46.936;15.514;2024-02-28T11:58:08;13.23;;;4.30;;
37507;SDS011;23360;46.936;15.514;2024-02-28T12:00:56;12.38;;;4.68;;
37507;SDS011;23360;46.936;15.514;2024-02-28T12:03:44;13.65;;;4.60;;
37507;SDS011;23360;46.936;15.514;2024-02-28T12:06:29;13.80;;;3.80;;
37507;SDS011;23360;46.936;15.514;2024-02-28T12:09:14;12.48;;;4.50;;
37507;SDS011;23360;46.936;15.514;2024-02-28T12:12:11;9.77;;;4.03;;
37507;SDS011;23360;46.936;15.514;2024-02-28T12:14:57;9.35;;;3.92;;
37507;SDS011;23360;46.936;15.514;2024-02-28T12:17:42;8.77;;;3.15;;
37507;SDS011;23360;46.936;15.514;2024-02-28T12:20:28;19.08;;;4.35;;
37507;SDS011;23360;46.936;15.514;2024-02-28T12:23:13;16.50;;;3.70;;
37507;SDS011;23360;46.936;15.514;2024-02-28T12:25:58;12.30;;;3.65;;
37507;SDS011;23360;46.936;15.514;2024-02-28T12:28:43;11.73;;;3.53;;
37507;SDS011;23360;46.936;15.514;2024-02-28T12:31:28;16.30;;;2.92;;
37507;SDS011;23360;46.936;15.514;2024-02-28T12:34:13;8.68;;;2.72;;
37507;SDS011;23360;46.936;15.514;2024-02-28T12:37:00;12.82;;;3.10;;
37507;SDS011;23360;46.936;15.514;2024-02-28T12:39:45;10.77;;;3.38;;
37507;SDS011;23360;46.936;15.514;2024-02-28T12:42:32;9.80;;;2.85;;
37507;SDS011;23360;46.936;15.514;2024-02-28T12:45:17;12.55;;;3.28;;
37507;SDS011;23360;46.936;15.514;2024-02-28T12:48:03;16.52;;;3.28;;
37507;SDS011;23360;46.936;15.514;2024-02-28T12:50:50;10.15;;;2.92;;
37507;SDS011;23360;46.936;15.514;2024-02-28T12:53:35;10.43;;;2.42;;
37507;SDS011;23360;46.936;15.514;2024-02-28T12:56:21;12.13;;;2.92;;
37507;SDS011;23360;46.936;15.514;2024-02-28T12:59:06;11.93;;;2.53;;
37507;SDS011;23360;46.936;15.514;2024-02-28T13:01:52;14.20;;;2.75;;
37507;SDS011;23360;46.936;15.514;2024-02-28T13:04:38;13.45;;;2.60;;
37507;SDS011;23360;46.936;15.514;2024-02-28T13:07:24;20.17;;;3.03;;
37507;SDS011;23360;46.936;15.514;2024-02-28T13:10:09;6.30;;;2.05;;
37507;SDS011;23360;46.936;15.514;2024-02-28T13:12:57;13.30;;;3.17;;
37507;SDS011;23360;46.936;15.514;2024-02-28T13:15:42;12.38;;;2.95;;
37507;SDS011;23360;46.936;15.514;2024-02-28T13:18:30;13.15;;;3.28;;
37507;SDS011;23360;46.936;15.514;2024-02-28T13:21:15;10.73;;;2.53;;
37507;SDS011;23360;46.936;15.514;2024-02-28T13:24:01;8.55;;;2.88;;
37507;SDS011;23360;46.936;15.514;2024-02-28T13:26:46;19.33;;;2.95;;
37507;SDS011;23360;46.936;15.514;2024-02-28T13:29:31;19.25;;;2.20;;
37507;SDS011;23360;46.936;15.514;2024-02-28T13:32:17;17.40;;;2.53;;
37507;SDS011;23360;46.936;15.514;2024-02-28T13:35:02;14.70;;;2.35;;
37507;SDS011;23360;46.936;15.514;2024-02-28T13:37:47;12.45;;;3.03;;
37507;SDS011;23360;46.936;15.514;2024-02-28T13:40:33;16.85;;;2.40;;
37507;SDS011;23360;46.936;15.514;2024-02-28T13:43:18;19.08;;;3.15;;
37507;SDS011;23360;46.936;15.514;2024-02-28T13:46:03;24.38;;;3.33;;
37507;SDS011;23360;46.936;15.514;2024-02-28T13:48:49;9.35;;;2.80;;
37507;SDS011;23360;46.936;15.514;2024-02-28T13:51:34;9.60;;;2.65;;
37507;SDS011;23360;46.936;15.514;2024-02-28T13:54:19;13.13;;;2.90;;
37507;SDS011;23360;46.936;15.514;2024-02-28T13:57:04;11.70;;;2.70;;
37507;SDS011;23360;46.936;15.514;2024-02-28T13:59:52;11.10;;;2.67;;
37507;SDS011;23360;46.936;15.514;2024-02-28T14:02:39;15.50;;;2.75;;
37507;SDS011;23360;46.936;15.514;2024-02-28T14:05:24;15.20;;;2.50;;
37507;SDS011;23360;46.936;15.514;2024-02-28T14:08:10;17.75;;;3.10;;
37507;SDS011;23360;46.936;15.514;2024-02-28T14:10:57;12.55;;;3.63;;
37507;SDS011;23360;46.936;15.514;2024-02-28T14:13:43;18.35;;;3.40;;
37507;SDS011;23360;46.936;15.514;2024-02-28T14:16:29;9.80;;;2.22;;
37507;SDS011;23360;46.936;15.514;2024-02-28T14:19:14;15.00;;;2.72;;
37507;SDS011;23360;46.936;15.514;2024-02-28T14:21:59;13.23;;;3.00;;
37507;SDS011;23360;46.936;15.514;2024-02-28T14:24:44;12.95;;;3.17;;
37507;SDS011;23360;46.936;15.514;2024-02-28T14:27:29;13.15;;;3.08;;
37507;SDS011;23360;46.936;15.514;2024-02-28T14:30:18;14.85;;;2.47;;
37507;SDS011;23360;46.936;15.514;2024-02-28T14:33:03;17.27;;;3.25;;
37507;SDS011;23360;46.936;15.514;2024-02-28T14:35:52;8.48;;;2.70;;
37507;SDS011;23360;46.936;15.514;2024-02-28T14:38:38;15.88;;;3.20;;
37507;SDS011;23360;46.936;15.514;2024-02-28T14:41:24;10.32;;;2.97;;
37507;SDS011;23360;46.936;15.514;2024-02-28T14:44:13;13.18;;;3.15;;
37507;SDS011;23360;46.936;15.514;2024-02-28T14:47:00;17.70;;;3.55;;
37507;SDS011;23360;46.936;15.514;2024-02-28T14:49:46;13.18;;;2.40;;
37507;SDS011;23360;46.936;15.514;2024-02-28T14:52:31;17.05;;;3.00;;
37507;SDS011;23360;46.936;15.514;2024-02-28T14:55:16;29.90;;;3.25;;
37507;SDS011;23360;46.936;15.514;2024-02-28T14:58:01;19.13;;;2.55;;
37507;SDS011;23360;46.936;15.514;2024-02-28T15:00:46;15.80;;;2.65;;
37507;SDS011;23360;46.936;15.514;2024-02-28T15:03:34;12.90;;;3.10;;
37507;SDS011;23360;46.936;15.514;2024-02-28T15:06:23;25.60;;;2.60;;
37507;SDS011;23360;46.936;15.514;2024-02-28T15:09:08;20.73;;;3.15;;
37507;SDS011;23360;46.936;15.514;2024-02-28T15:11:54;22.80;;;2.80;;
37507;SDS011;23360;46.936;15.514;2024-02-28T15:14:40;20.27;;;3.15;;
37507;SDS011;23360;46.936;15.514;2024-02-28T15:17:25;16.83;;;2.72;;
37507;SDS011;23360;46.936;15.514;2024-02-28T15:20:11;10.43;;;2.55;;
37507;SDS011;23360;46.936;15.514;2024-02-28T15:22:56;17.83;;;3.10;;
37507;SDS011;23360;46.936;15.514;2024-02-28T15:25:42;11.45;;;2.50;;
37507;SDS011;23360;46.936;15.514;2024-02-28T15:28:27;15.38;;;2.97;;
37507;SDS011;23360;46.936;15.514;2024-02-28T15:31:12;11.05;;;2.85;;
37507;SDS011;23360;46.936;15.514;2024-02-28T15:33:57;14.32;;;2.38;;
37507;SDS011;23360;46.936;15.514;2024-02-28T15:36:43;17.42;;;2.33;;
37507;SDS011;23360;46.936;15.514;2024-02-28T15:39:28;19.52;;;2.25;;
37507;SDS011;23360;46.936;15.514;2024-02-28T15:42:13;19.70;;;2.78;;
37507;SDS011;23360;46.936;15.514;2024-02-28T15:44:58;10.82;;;2.47;;
37507;SDS011;23360;46.936;15.514;2024-02-28T15:47:44;18.23;;;3.47;;
37507;SDS011;23360;46.936;15.514;2024-02-28T15:50:29;14.88;;;2.50;;
37507;SDS011;23360;46.936;15.514;2024-02-28T15:53:14;18.95;;;2.58;;
37507;SDS011;23360;46.936;15.514;2024-02-28T15:56:00;25.08;;;5.18;;
37507;SDS011;23360;46.936;15.514;2024-02-28T15:58:45;68.70;;;6.75;;
37507;SDS011;23360;46.936;15.514;2024-02-28T16:01:30;29.13;;;4.47;;